Time;durP1;ratioP1;P1;durP2;ratioP2;P2;SDS_P1;SDS_P2;PMS_P1;PMS_P2;Temp;Humidity;BMP_temperature;BMP_pressure;BME280_temperature;BME280_humidity;BME280_pressure;Samples;Min_cycle;Max_cycle;Signal;HPM_P1;HPM_P2
2023/01/25 00:00:47;;;;;;;15.02;12.38;;;5.30;99.90;;;;;;4975326;28;20652;-73
2023/01/25 00:03:16;;;;;;;14.80;10.70;;;5.30;99.90;;;;;;4990742;28;20179;-74
2023/01/25 00:05:44;;;;;;;14.73;11.80;;;5.30;99.90;;;;;;4975297;28;20709;-73
2023/01/25 00:08:12;;;;;;;16.83;12.93;;;5.30;99.90;;;;;;4974873;28;20587;-74
2023/01/25 00:10:41;;;;;;;12.55;11.25;;;5.30;99.90;;;;;;4991467;28;20182;-74
2023/01/25 00:13:07;;;;;;;17.48;12.15;;;5.30;99.90;;;;;;4975259;28;20191;-74
2023/01/25 00:15:33;;;;;;;15.40;12.40;;;5.30;99.90;;;;;;4974703;28;20217;-74
2023/01/25 00:18:01;;;;;;;14.50;11.63;;;5.30;99.90;;;;;;4992440;28;20179;-74
2023/01/25 00:20:27;;;;;;;15.35;11.73;;;5.30;99.90;;;;;;4991426;28;20452;-73
2023/01/25 00:22:55;;;;;;;15.98;12.40;;;5.30;99.90;;;;;;4991484;28;20221;-74
2023/01/25 00:25:22;;;;;;;17.10;12.97;;;5.20;99.90;;;;;;4974000;28;20206;-73
2023/01/25 00:27:51;;;;;;;16.38;11.73;;;5.30;99.90;;;;;;4991939;28;20453;-73
2023/01/25 00:30:20;;;;;;;17.05;13.02;;;5.20;99.90;;;;;;4974858;28;20167;-74
2023/01/25 00:32:59;;;;;;;15.07;11.98;;;5.20;99.90;;;;;;5007003;28;20268;-73
2023/01/25 00:35:33;;;;;;;16.42;12.25;;;5.20;99.90;;;;;;4975056;28;20229;-74
2023/01/25 00:38:15;;;;;;;18.25;14.20;;;5.20;99.90;;;;;;4977029;28;20721;-74
2023/01/25 00:40:43;;;;;;;16.20;12.90;;;5.20;99.90;;;;;;4978113;28;20240;-75
2023/01/25 00:43:09;;;;;;;16.88;13.30;;;5.20;99.90;;;;;;4978329;28;20206;-73
2023/01/25 00:45:37;;;;;;;14.90;12.50;;;5.20;99.90;;;;;;4978201;28;20199;-73
2023/01/25 00:48:08;;;;;;;14.40;11.25;;;5.20;99.90;;;;;;4962284;28;20680;-73
2023/01/25 00:50:39;;;;;;;16.05;12.30;;;5.30;99.90;;;;;;4978809;28;20182;-74
2023/01/25 00:53:06;;;;;;;16.02;13.30;;;5.30;99.90;;;;;;4978148;28;20210;-74
2023/01/25 00:55:34;;;;;;;14.50;12.15;;;5.20;99.90;;;;;;4995312;28;20282;-73
2023/01/25 00:58:00;;;;;;;16.70;12.17;;;5.30;99.90;;;;;;5010762;28;20208;-74
2023/01/25 01:00:26;;;;;;;17.30;12.70;;;5.30;99.90;;;;;;4977717;28;20398;-74
2023/01/25 01:02:54;;;;;;;16.45;12.52;;;5.30;99.90;;;;;;4978091;28;20405;-73
2023/01/25 01:05:23;;;;;;;21.40;13.50;;;5.20;99.90;;;;;;4977904;28;20209;-73
2023/01/25 01:07:49;;;;;;;16.30;12.48;;;5.20;99.90;;;;;;4961402;28;20178;-74
2023/01/25 01:10:23;;;;;;;16.42;12.50;;;5.20;99.90;;;;;;4977754;28;20166;-73
2023/01/25 01:12:50;;;;;;;16.23;13.57;;;5.20;99.90;;;;;;4994572;28;20289;-73
2023/01/25 01:15:19;;;;;;;17.15;12.75;;;5.20;99.90;;;;;;4977912;28;20619;-74
2023/01/25 01:17:47;;;;;;;17.02;12.90;;;5.20;99.90;;;;;;4977925;28;20171;-73
2023/01/25 01:20:13;;;;;;;19.08;13.40;;;5.20;99.90;;;;;;4993119;28;20175;-74
2023/01/25 01:22:39;;;;;;;16.17;12.38;;;5.20;99.90;;;;;;4961359;28;20261;-74
2023/01/25 01:25:09;;;;;;;14.77;12.10;;;5.20;99.90;;;;;;4977048;28;20202;-73
2023/01/25 01:27:38;;;;;;;16.70;13.00;;;5.20;99.90;;;;;;4993764;28;20221;-73
2023/01/25 01:30:05;;;;;;;15.60;12.10;;;5.20;99.90;;;;;;4992961;28;20696;-73
2023/01/25 01:32:33;;;;;;;15.77;12.65;;;5.20;99.90;;;;;;4961005;28;20220;-73
2023/01/25 01:35:01;;;;;;;17.45;13.90;;;5.20;99.90;;;;;;4961414;28;20198;-74
2023/01/25 01:37:27;;;;;;;16.80;12.40;;;5.20;99.90;;;;;;4961484;28;20270;-73
2023/01/25 01:39:58;;;;;;;17.67;13.80;;;5.20;99.90;;;;;;4977278;28;20257;-73
2023/01/25 01:42:27;;;;;;;16.40;12.13;;;5.20;99.90;;;;;;4961177;28;20194;-73
2023/01/25 01:44:55;;;;;;;15.18;12.35;;;5.20;99.90;;;;;;4976389;28;20300;-74
2023/01/25 01:47:43;;;;;;;16.55;12.35;;;5.20;99.90;;;;;;4977014;28;20166;-73
2023/01/25 01:50:19;;;;;;;19.67;13.27;;;5.20;99.90;;;;;;4961135;28;20189;-74
2023/01/25 01:52:51;;;;;;;16.92;13.48;;;5.20;99.90;;;;;;4960979;28;20326;-73
2023/01/25 01:55:23;;;;;;;17.25;12.93;;;5.20;99.90;;;;;;4977063;28;20194;-74
2023/01/25 01:57:57;;;;;;;17.38;13.00;;;5.20;99.90;;;;;;4976788;28;20259;-74
2023/01/25 02:00:35;;;;;;;16.40;11.90;;;5.20;99.90;;;;;;4960003;28;20181;-74
2023/01/25 02:03:06;;;;;;;16.38;12.90;;;5.20;99.90;;;;;;4961257;28;20202;-73
2023/01/25 02:05:45;;;;;;;18.20;12.90;;;5.20;99.90;;;;;;4993249;28;20260;-73
2023/01/25 02:08:16;;;;;;;15.65;12.85;;;5.20;99.90;;;;;;4976790;28;20213;-74
2023/01/25 02:10:47;;;;;;;15.93;12.77;;;5.10;99.90;;;;;;4994137;28;20538;-73
2023/01/25 02:13:13;;;;;;;17.63;13.30;;;5.20;99.90;;;;;;4990726;28;20230;-74
2023/01/25 02:15:52;;;;;;;16.70;12.70;;;5.20;99.90;;;;;;5013568;28;20633;-74
2023/01/25 02:18:19;;;;;;;16.42;12.73;;;5.20;99.90;;;;;;4980172;28;20154;-74
2023/01/25 02:20:51;;;;;;;18.42;13.82;;;5.20;99.90;;;;;;4966096;28;20521;-74
2023/01/25 02:23:28;;;;;;;16.83;12.73;;;5.20;99.90;;;;;;4993907;28;20298;-74
2023/01/25 02:26:03;;;;;;;16.83;13.05;;;5.20;99.90;;;;;;4960901;28;20207;-74
2023/01/25 02:28:37;;;;;;;16.95;13.45;;;5.20;99.90;;;;;;4993528;28;20265;-74
2023/01/25 02:31:06;;;;;;;15.63;12.55;;;5.20;99.90;;;;;;4976186;28;20165;-75
2023/01/25 02:33:32;;;;;;;16.15;11.95;;;5.20;99.90;;;;;;5008253;28;20209;-73
2023/01/25 02:36:07;;;;;;;15.10;11.88;;;5.10;99.90;;;;;;4976368;28;20198;-73
2023/01/25 02:38:40;;;;;;;17.95;14.13;;;5.20;99.90;;;;;;4976267;28;20205;-75
2023/01/25 02:41:20;;;;;;;17.42;13.07;;;5.20;99.90;;;;;;4976010;28;20217;-74
2023/01/25 02:43:47;;;;;;;16.17;13.73;;;5.20;99.90;;;;;;4974783;28;20574;-74
2023/01/25 02:46:43;;;;;;;17.80;13.20;;;5.20;99.90;;;;;;4960271;28;20209;-74
2023/01/25 02:49:13;;;;;;;16.15;12.50;;;5.20;99.90;;;;;;4976211;28;20202;-73
2023/01/25 02:51:45;;;;;;;16.65;12.63;;;5.20;99.90;;;;;;4992741;28;20206;-74
2023/01/25 02:54:13;;;;;;;17.50;13.40;;;5.10;99.90;;;;;;4975924;28;20159;-74
2023/01/25 02:56:40;;;;;;;17.63;13.40;;;5.10;99.90;;;;;;4993350;28;20162;-74
2023/01/25 02:59:12;;;;;;;18.45;13.57;;;5.10;99.90;;;;;;4974909;28;20186;-74
2023/01/25 03:01:43;;;;;;;19.63;14.20;;;5.10;99.90;;;;;;4959141;28;20664;-73
2023/01/25 03:04:10;;;;;;;18.55;13.15;;;5.10;99.90;;;;;;4976080;28;20174;-73
2023/01/25 03:06:37;;;;;;;17.00;13.07;;;5.10;99.90;;;;;;4959712;28;20653;-74
2023/01/25 03:09:07;;;;;;;19.52;14.68;;;5.10;99.90;;;;;;4959926;28;20540;-74
2023/01/25 03:11:37;;;;;;;17.85;13.65;;;5.10;99.90;;;;;;4975737;28;20213;-73
2023/01/25 03:14:06;;;;;;;16.80;12.43;;;5.10;99.90;;;;;;4991434;28;20538;-74
2023/01/25 03:16:35;;;;;;;19.10;13.60;;;5.10;99.90;;;;;;4991998;28;20173;-73
2023/01/25 03:19:07;;;;;;;15.30;12.90;;;5.10;99.90;;;;;;4975430;28;20237;-74
2023/01/25 03:21:33;;;;;;;16.25;12.73;;;5.10;99.90;;;;;;5007336;28;20225;-74
2023/01/25 03:24:04;;;;;;;17.40;14.18;;;5.10;99.90;;;;;;5008040;28;20198;-74
2023/01/25 03:27:09;;;;;;;18.98;13.55;;;5.10;99.90;;;;;;4959354;28;20191;-74
2023/01/25 03:29:33;;;;;;;19.13;14.25;;;5.10;99.90;;;;;;4959961;28;20630;-73
2023/01/25 03:32:06;;;;;;;17.85;13.60;;;5.10;99.90;;;;;;4974414;28;20285;-73
2023/01/25 03:34:37;;;;;;;19.60;14.60;;;5.10;99.90;;;;;;4959516;28;20209;-74
2023/01/25 03:37:03;;;;;;;18.17;13.02;;;5.10;99.90;;;;;;4975064;28;20210;-73
2023/01/25 03:39:35;;;;;;;18.83;13.93;;;5.10;99.90;;;;;;4991470;28;20217;-73
2023/01/25 03:42:01;;;;;;;18.10;13.00;;;5.10;99.90;;;;;;4992797;28;20186;-73
2023/01/25 03:44:31;;;;;;;18.17;13.00;;;5.00;99.90;;;;;;4959079;28;20219;-73
2023/01/25 03:47:01;;;;;;;20.95;13.68;;;5.10;99.90;;;;;;4975455;28;20534;-73
2023/01/25 03:49:28;;;;;;;18.42;14.45;;;5.10;99.90;;;;;;4974723;28;20189;-73
2023/01/25 03:51:56;;;;;;;20.70;15.03;;;5.10;99.90;;;;;;4975257;28;20194;-74
2023/01/25 03:54:27;;;;;;;21.75;14.68;;;5.10;99.90;;;;;;4957896;28;20930;-73
2023/01/25 03:56:54;;;;;;;21.27;13.70;;;5.10;99.90;;;;;;4958708;28;20183;-73
2023/01/25 03:59:24;;;;;;;16.95;12.90;;;5.10;99.90;;;;;;5040008;23;20397;-71
2023/01/25 04:01:54;;;;;;;18.75;14.60;;;5.10;99.90;;;;;;5014479;28;20232;-72
2023/01/25 04:04:22;;;;;;;18.23;14.75;;;5.10;99.90;;;;;;5031413;28;20197;-74
2023/01/25 04:06:52;;;;;;;18.55;13.68;;;5.10;99.90;;;;;;5054352;28;20202;-74
2023/01/25 04:09:22;;;;;;;18.80;13.85;;;5.10;99.90;;;;;;5054882;28;20168;-74
2023/01/25 04:11:51;;;;;;;18.33;13.45;;;5.10;99.90;;;;;;5022295;28;20584;-73
2023/01/25 04:14:21;;;;;;;19.42;14.57;;;5.10;99.90;;;;;;5039781;28;20207;-73
2023/01/25 04:16:56;;;;;;;19.80;14.32;;;5.10;99.90;;;;;;5021074;28;20226;-73
2023/01/25 04:19:36;;;;;;;16.60;12.57;;;5.10;99.90;;;;;;5037761;28;20183;-73
2023/01/25 04:22:03;;;;;;;17.25;13.38;;;5.00;99.90;;;;;;5038104;28;20180;-74
2023/01/25 04:24:36;;;;;;;17.85;13.45;;;5.10;99.90;;;;;;5037977;28;20198;-73
2023/01/25 04:27:02;;;;;;;18.15;13.10;;;5.00;99.90;;;;;;5005648;28;20699;-73
2023/01/25 04:29:32;;;;;;;17.83;13.30;;;5.00;99.90;;;;;;5038011;28;20173;-74
2023/01/25 04:32:01;;;;;;;18.75;14.55;;;5.10;99.90;;;;;;5037851;28;20253;-74
2023/01/25 04:34:27;;;;;;;19.65;13.30;;;5.10;99.90;;;;;;5021451;28;20593;-74
2023/01/25 04:36:53;;;;;;;19.77;13.77;;;5.10;99.90;;;;;;5038227;28;20180;-74
2023/01/25 04:39:21;;;;;;;16.88;12.40;;;5.10;99.90;;;;;;5038300;28;20411;-74
2023/01/25 04:41:47;;;;;;;18.63;13.40;;;5.10;99.90;;;;;;5017063;28;20188;-74
2023/01/25 04:44:13;;;;;;;16.27;13.30;;;5.00;99.90;;;;;;5034352;28;20415;-74
2023/01/25 04:46:40;;;;;;;16.17;12.82;;;5.00;99.90;;;;;;5018026;28;20407;-74
2023/01/25 04:49:11;;;;;;;16.77;12.70;;;5.00;99.90;;;;;;5002815;28;20203;-74
2023/01/25 04:51:39;;;;;;;20.47;14.07;;;5.00;99.90;;;;;;5001298;28;20211;-74
2023/01/25 04:54:05;;;;;;;16.90;12.82;;;5.00;99.90;;;;;;5001299;28;20459;-75
2023/01/25 04:56:32;;;;;;;16.00;13.20;;;5.00;99.90;;;;;;4985790;28;20176;-74
2023/01/25 04:58:58;;;;;;;18.15;12.80;;;5.00;99.90;;;;;;5057347;28;20171;-74
2023/01/25 05:01:26;;;;;;;17.65;13.02;;;5.00;99.90;;;;;;5057088;28;20207;-74
2023/01/25 05:03:52;;;;;;;17.50;13.27;;;5.00;99.90;;;;;;5040699;28;20681;-74
2023/01/25 05:06:36;;;;;;;17.63;13.20;;;5.00;99.90;;;;;;5057192;28;20722;-75
2023/01/25 05:09:02;;;;;;;15.95;12.30;;;5.00;99.90;;;;;;5040719;28;20184;-74
2023/01/25 05:11:29;;;;;;;19.02;14.63;;;5.00;99.90;;;;;;5038525;28;20207;-72
2023/01/25 05:14:08;;;;;;;15.95;12.70;;;5.00;99.90;;;;;;5022837;28;20526;-75
2023/01/25 05:16:34;;;;;;;18.67;13.07;;;5.00;99.90;;;;;;5004933;28;20204;-73
2023/01/25 05:19:00;;;;;;;17.80;13.10;;;5.00;99.90;;;;;;5037747;28;20169;-73
2023/01/25 05:24:21;;;;;;;19.80;14.10;;;5.00;99.90;;;;;;5036478;28;20287;-75
2023/01/25 05:26:59;;;;;;;20.00;14.10;;;5.00;99.90;;;;;;5042118;28;20503;-73
2023/01/25 05:29:31;;;;;;;20.95;14.48;;;5.00;99.90;;;;;;5021340;28;20257;-74
2023/01/25 05:32:10;;;;;;;17.13;13.18;;;5.00;99.90;;;;;;5013102;28;20211;-74
2023/01/25 05:34:38;;;;;;;18.50;14.23;;;5.00;99.90;;;;;;5040566;28;20206;-74
2023/01/25 05:37:06;;;;;;;19.33;13.40;;;5.00;99.90;;;;;;5050632;28;20535;-74
2023/01/25 05:39:38;;;;;;;18.50;13.13;;;5.00;99.90;;;;;;5037350;28;20577;-74
2023/01/25 05:42:13;;;;;;;17.67;14.32;;;5.00;99.90;;;;;;5037081;28;20176;-74
2023/01/25 05:44:39;;;;;;;19.73;13.55;;;5.00;99.90;;;;;;5036909;28;20684;-74
2023/01/25 05:47:11;;;;;;;22.95;15.30;;;5.00;99.90;;;;;;5004585;28;20200;-74
2023/01/25 05:49:36;;;;;;;17.33;13.10;;;5.00;99.90;;;;;;5070197;28;20191;-74
2023/01/25 05:52:04;;;;;;;20.55;13.45;;;5.00;99.90;;;;;;5036628;28;20734;-74
2023/01/25 05:54:30;;;;;;;19.63;14.52;;;5.00;99.90;;;;;;5036422;28;20200;-74
2023/01/25 05:57:02;;;;;;;20.95;14.80;;;5.00;99.90;;;;;;5030946;28;20223;-73
2023/01/25 05:59:29;;;;;;;22.48;15.40;;;5.00;99.90;;;;;;5029871;28;20177;-74
2023/01/25 06:01:57;;;;;;;19.98;14.10;;;5.00;99.90;;;;;;5020200;28;20180;-74
2023/01/25 06:04:26;;;;;;;20.27;15.27;;;5.00;99.90;;;;;;5020055;28;20204;-73
2023/01/25 06:06:52;;;;;;;20.30;14.38;;;5.00;99.90;;;;;;5020018;28;20462;-73
2023/01/25 06:09:19;;;;;;;19.80;14.20;;;5.00;99.90;;;;;;5020321;28;20668;-75
2023/01/25 06:11:45;;;;;;;21.80;15.07;;;5.00;99.90;;;;;;5035470;28;20192;-74
2023/01/25 06:14:15;;;;;;;20.92;13.98;;;5.00;99.90;;;;;;5036984;28;20651;-74
2023/01/25 06:16:41;;;;;;;20.10;14.68;;;5.00;99.90;;;;;;5052937;28;20166;-74
2023/01/25 06:19:15;;;;;;;20.73;15.27;;;5.00;99.90;;;;;;5020707;28;20596;-74
2023/01/25 06:21:51;;;;;;;21.23;15.93;;;5.00;99.90;;;;;;5019677;28;20176;-74
2023/01/25 06:24:17;;;;;;;19.00;14.90;;;5.00;99.90;;;;;;5019044;28;20218;-74
2023/01/25 06:26:45;;;;;;;21.52;15.70;;;5.00;99.90;;;;;;5039382;28;20611;-75
2023/01/25 06:29:11;;;;;;;18.67;13.90;;;5.00;99.90;;;;;;5039540;28;20199;-73
2023/01/25 06:31:40;;;;;;;20.92;14.50;;;5.00;99.90;;;;;;5073275;28;20597;-73
2023/01/25 06:34:07;;;;;;;20.48;14.55;;;5.00;99.90;;;;;;5055257;28;20156;-73
2023/01/25 06:36:33;;;;;;;19.80;15.15;;;5.00;99.90;;;;;;5054944;28;20215;-74
2023/01/25 06:39:03;;;;;;;20.93;15.37;;;5.00;99.90;;;;;;5038180;28;20710;-73
2023/01/25 06:41:29;;;;;;;24.77;15.23;;;5.00;99.90;;;;;;5054907;28;20430;-73
2023/01/25 06:43:56;;;;;;;22.10;15.77;;;5.00;99.90;;;;;;5055410;28;20558;-73
2023/01/25 06:46:22;;;;;;;19.58;14.88;;;5.00;99.90;;;;;;5055799;28;20742;-73
2023/01/25 06:48:52;;;;;;;21.10;15.50;;;5.00;99.90;;;;;;5055683;28;20203;-73
2023/01/25 06:51:18;;;;;;;21.50;15.43;;;4.90;99.90;;;;;;5039030;28;20421;-73
2023/01/25 06:53:45;;;;;;;23.20;16.10;;;4.90;99.90;;;;;;5039270;28;20226;-73
2023/01/25 06:56:17;;;;;;;22.42;14.80;;;4.90;99.90;;;;;;5055495;28;20438;-73
2023/01/25 06:58:43;;;;;;;21.90;15.90;;;4.90;99.90;;;;;;5073189;28;20211;-73
2023/01/25 07:01:14;;;;;;;21.67;14.95;;;4.90;99.90;;;;;;5054468;28;20190;-72
2023/01/25 07:03:41;;;;;;;24.55;15.70;;;4.90;99.90;;;;;;5053316;28;20207;-72
2023/01/25 07:06:09;;;;;;;21.58;15.35;;;4.90;99.90;;;;;;5034230;28;20205;-72
2023/01/25 07:08:38;;;;;;;21.77;15.07;;;4.90;99.90;;;;;;5017656;28;20184;-72
2023/01/25 07:11:08;;;;;;;24.98;16.02;;;4.90;99.90;;;;;;5034095;28;20183;-72
2023/01/25 07:13:34;;;;;;;22.70;16.13;;;4.90;99.90;;;;;;5034336;28;20582;-72
2023/01/25 07:16:03;;;;;;;24.55;16.70;;;4.90;99.90;;;;;;5051868;28;20196;-72
2023/01/25 07:18:31;;;;;;;23.20;15.02;;;4.90;99.90;;;;;;5051849;28;20157;-72
2023/01/25 07:21:05;;;;;;;21.65;14.60;;;4.90;99.90;;;;;;5017751;28;20177;-72
2023/01/25 07:23:32;;;;;;;22.35;15.60;;;4.90;99.90;;;;;;5016515;28;20291;-72
2023/01/25 07:25:59;;;;;;;21.70;16.65;;;4.90;99.90;;;;;;5006711;28;20257;-72
2023/01/25 07:28:25;;;;;;;21.75;15.73;;;4.90;99.90;;;;;;5054124;28;20222;-72
2023/01/25 07:30:51;;;;;;;25.73;16.52;;;4.90;99.90;;;;;;5053669;28;20207;-72
2023/01/25 07:33:17;;;;;;;21.47;15.00;;;4.90;99.90;;;;;;5071467;28;20196;-72
2023/01/25 07:35:47;;;;;;;22.55;15.10;;;4.90;99.90;;;;;;5071569;28;20429;-72
2023/01/25 07:38:13;;;;;;;22.65;16.27;;;4.90;99.90;;;;;;5035047;28;20200;-72
2023/01/25 07:40:39;;;;;;;23.20;16.10;;;4.90;99.90;;;;;;5033680;28;20227;-73
2023/01/25 07:43:07;;;;;;;21.25;15.32;;;4.90;99.90;;;;;;5034066;28;20406;-73
2023/01/25 07:45:35;;;;;;;24.35;17.30;;;4.90;99.90;;;;;;5017541;28;20212;-73
2023/01/25 07:48:09;;;;;;;23.30;16.15;;;4.90;99.90;;;;;;5038190;28;20164;-72
2023/01/25 07:50:35;;;;;;;22.13;16.08;;;4.90;99.90;;;;;;5055440;28;20200;-72
2023/01/25 07:53:04;;;;;;;24.23;15.07;;;4.90;99.90;;;;;;5021479;28;20208;-72
2023/01/25 07:55:30;;;;;;;21.58;15.30;;;4.90;99.90;;;;;;5046781;28;20202;-73
2023/01/25 07:57:56;;;;;;;25.58;16.73;;;4.90;99.90;;;;;;5051393;28;20713;-73
2023/01/25 08:00:25;;;;;;;22.55;15.63;;;4.90;99.90;;;;;;5057585;28;20192;-73
2023/01/25 08:02:54;;;;;;;24.10;16.13;;;4.90;99.90;;;;;;5058262;28;20200;-76
2023/01/25 08:05:20;;;;;;;24.50;16.50;;;4.90;99.90;;;;;;5076068;28;20202;-73
2023/01/25 08:07:51;;;;;;;23.05;16.50;;;4.90;99.90;;;;;;5057515;28;20171;-74
2023/01/25 08:10:20;;;;;;;23.80;15.93;;;4.90;99.90;;;;;;5038270;28;20181;-74
2023/01/25 08:12:45;;;;;;;24.07;15.83;;;4.90;99.90;;;;;;5065922;28;20195;-74
2023/01/25 08:15:15;;;;;;;27.05;16.85;;;4.90;99.90;;;;;;5056117;28;20799;-74
2023/01/25 08:17:43;;;;;;;20.38;15.60;;;4.90;99.90;;;;;;5056276;28;20193;-74
2023/01/25 08:20:09;;;;;;;22.90;16.57;;;4.90;99.90;;;;;;5043797;28;20655;-74
2023/01/25 08:22:38;;;;;;;24.95;17.20;;;4.90;99.90;;;;;;5036526;28;20448;-74
2023/01/25 08:25:04;;;;;;;23.00;17.10;;;4.90;99.90;;;;;;5043115;28;20580;-75
2023/01/25 08:27:30;;;;;;;23.27;16.30;;;4.90;99.90;;;;;;5046742;28;20198;-74
2023/01/25 08:29:58;;;;;;;26.37;18.00;;;4.90;99.90;;;;;;5045887;28;20275;-74
2023/01/25 08:32:24;;;;;;;23.27;16.60;;;4.90;99.90;;;;;;5052419;28;20512;-74
2023/01/25 08:34:53;;;;;;;24.88;18.10;;;4.90;99.90;;;;;;5044469;28;20237;-74
2023/01/25 08:37:21;;;;;;;24.08;18.10;;;4.90;99.90;;;;;;5057429;28;20228;-74
2023/01/25 08:39:47;;;;;;;25.50;17.88;;;4.90;99.90;;;;;;5075259;28;20164;-74
2023/01/25 08:42:17;;;;;;;24.38;16.65;;;4.90;99.90;;;;;;5075750;28;20182;-74
2023/01/25 08:44:43;;;;;;;25.80;16.77;;;4.90;99.90;;;;;;5053185;28;20204;-74
2023/01/25 08:47:09;;;;;;;23.80;16.80;;;4.90;99.90;;;;;;5021483;28;20260;-74
2023/01/25 08:49:37;;;;;;;25.27;17.70;;;4.90;99.90;;;;;;5021496;28;20395;-74
2023/01/25 08:52:03;;;;;;;27.02;17.25;;;4.90;99.90;;;;;;5037648;28;20443;-74
2023/01/25 08:54:34;;;;;;;23.30;15.75;;;4.90;99.90;;;;;;5055608;28;20306;-74
2023/01/25 08:57:07;;;;;;;23.65;17.48;;;4.90;99.90;;;;;;5055138;28;20267;-74
2023/01/25 08:59:33;;;;;;;24.55;16.80;;;4.90;99.90;;;;;;5040417;28;20188;-74
2023/01/25 09:01:59;;;;;;;27.52;18.42;;;4.90;99.90;;;;;;5045100;28;20201;-74
2023/01/25 09:04:28;;;;;;;22.58;16.45;;;4.80;99.90;;;;;;5021498;28;20224;-74
2023/01/25 09:06:56;;;;;;;24.02;16.73;;;4.80;99.90;;;;;;5021145;28;20176;-74
2023/01/25 09:09:23;;;;;;;27.80;17.40;;;4.80;99.90;;;;;;5074135;28;20544;-74
2023/01/25 09:11:51;;;;;;;25.10;17.52;;;4.80;99.90;;;;;;5074136;28;20200;-74
2023/01/25 09:14:17;;;;;;;26.67;17.20;;;4.80;99.90;;;;;;5040830;28;20179;-74
2023/01/25 09:16:43;;;;;;;24.90;17.07;;;4.80;99.90;;;;;;5074207;28;20452;-74
2023/01/25 09:19:10;;;;;;;25.50;17.50;;;4.80;99.90;;;;;;5059957;28;20415;-74
2023/01/25 09:21:36;;;;;;;28.90;17.90;;;4.80;99.90;;;;;;5037419;28;20455;-74
2023/01/25 09:24:02;;;;;;;22.77;16.90;;;4.80;99.90;;;;;;5054966;28;20201;-74
2023/01/25 09:26:30;;;;;;;25.00;17.15;;;4.80;99.90;;;;;;5054593;28;20177;-74
2023/01/25 09:28:56;;;;;;;28.42;18.50;;;4.80;99.90;;;;;;5044152;28;20233;-74
2023/01/25 09:31:23;;;;;;;25.00;18.23;;;4.80;99.90;;;;;;5054831;28;20535;-74
2023/01/25 09:34:15;;;;;;;24.73;16.27;;;4.80;99.90;;;;;;5030074;28;20427;-74
2023/01/25 09:36:41;;;;;;;28.77;17.75;;;4.80;99.90;;;;;;5053783;28;20176;-74
2023/01/25 09:39:12;;;;;;;24.30;16.35;;;4.80;99.90;;;;;;5075062;28;20255;-74
2023/01/25 09:41:52;;;;;;;29.98;17.70;;;4.80;99.90;;;;;;5040235;28;20214;-74
2023/01/25 09:44:30;;;;;;;29.48;18.52;;;4.80;99.90;;;;;;5056978;28;20619;-74
2023/01/25 09:47:20;;;;;;;28.63;17.73;;;4.80;99.90;;;;;;5057394;28;20207;-74
2023/01/25 09:49:54;;;;;;;27.90;17.45;;;4.80;99.90;;;;;;5056630;28;20164;-74
2023/01/25 09:52:20;;;;;;;27.55;19.00;;;4.80;99.90;;;;;;5056674;28;20228;-74
2023/01/25 09:54:50;;;;;;;29.38;18.83;;;4.80;99.90;;;;;;5073386;28;20192;-73
2023/01/25 09:57:32;;;;;;;25.27;17.23;;;4.80;99.90;;;;;;5036563;28;20184;-74
2023/01/25 10:00:02;;;;;;;29.05;19.05;;;4.80;99.90;;;;;;5052936;28;20565;-74
2023/01/25 10:02:40;;;;;;;28.92;19.30;;;4.80;99.90;;;;;;5062512;28;20574;-74
2023/01/25 10:05:22;;;;;;;29.70;18.95;;;4.80;99.90;;;;;;5028477;28;20246;-74
2023/01/25 10:08:13;;;;;;;26.02;18.45;;;4.80;99.90;;;;;;5036159;28;20561;-74
2023/01/25 10:10:42;;;;;;;25.75;17.48;;;4.80;99.90;;;;;;5022070;28;20212;-74
2023/01/25 10:13:14;;;;;;;27.77;17.70;;;4.80;99.90;;;;;;5036297;28;20231;-74
2023/01/25 10:15:54;;;;;;;32.10;18.80;;;4.80;99.90;;;;;;5019618;28;20212;-74
2023/01/25 10:18:49;;;;;;;26.92;17.77;;;4.80;99.90;;;;;;5000331;28;20231;-74
2023/01/25 10:21:29;;;;;;;26.30;18.65;;;4.80;99.90;;;;;;4998508;28;20204;-74
2023/01/25 10:24:25;;;;;;;32.58;18.55;;;4.80;99.90;;;;;;5055288;28;20179;-74
2023/01/25 10:27:01;;;;;;;26.38;17.33;;;4.80;99.90;;;;;;5032603;28;20303;-74
2023/01/25 10:29:35;;;;;;;28.95;18.02;;;4.80;99.90;;;;;;5033656;28;20645;-74
2023/01/25 10:32:23;;;;;;;29.00;18.65;;;4.80;99.90;;;;;;5042350;28;20196;-73
2023/01/25 10:34:57;;;;;;;27.60;18.70;;;4.80;99.90;;;;;;5035542;28;20223;-74
2023/01/25 10:37:32;;;;;;;27.00;18.08;;;4.80;99.90;;;;;;5038301;28;20537;-74
2023/01/25 10:39:59;;;;;;;30.15;18.80;;;4.80;99.90;;;;;;5041628;28;20269;-74
2023/01/25 10:42:28;;;;;;;29.33;19.48;;;4.80;99.90;;;;;;5020907;28;20650;-74
2023/01/25 10:44:54;;;;;;;29.30;18.92;;;4.80;99.90;;;;;;5035611;28;20271;-74
2023/01/25 10:47:31;;;;;;;30.38;19.00;;;4.80;99.90;;;;;;5071167;28;20184;-74
2023/01/25 10:50:02;;;;;;;26.58;17.50;;;4.80;99.90;;;;;;5039305;28;20171;-74
2023/01/25 10:52:31;;;;;;;30.75;18.77;;;4.80;99.90;;;;;;5055914;28;20196;-74
2023/01/25 10:55:22;;;;;;;32.95;19.20;;;4.80;99.90;;;;;;5035524;28;20209;-74
2023/01/25 10:57:50;;;;;;;30.35;19.35;;;4.80;99.90;;;;;;5033170;28;20206;-74
2023/01/25 11:00:27;;;;;;;27.27;18.10;;;4.80;99.90;;;;;;5038769;28;20187;-74
2023/01/25 11:02:54;;;;;;;29.70;18.98;;;4.80;99.90;;;;;;5027013;28;20230;-74
2023/01/25 11:05:24;;;;;;;28.42;18.70;;;4.80;99.90;;;;;;5053075;28;20192;-74
2023/01/25 11:07:50;;;;;;;29.77;18.73;;;4.80;99.90;;;;;;5061588;28;20187;-74
2023/01/25 11:10:32;;;;;;;26.17;17.23;;;4.80;99.90;;;;;;5046718;28;20191;-74
2023/01/25 11:13:18;;;;;;;29.60;18.75;;;4.80;99.90;;;;;;5045650;28;20196;-74
2023/01/25 11:15:47;;;;;;;35.90;21.48;;;4.80;99.90;;;;;;5061689;28;20317;-74
2023/01/25 11:18:30;;;;;;;31.13;19.75;;;4.80;99.90;;;;;;5054996;28;20192;-74
2023/01/25 11:21:15;;;;;;;28.58;18.08;;;4.80;99.90;;;;;;5054048;28;20195;-73
2023/01/25 11:23:43;;;;;;;31.45;19.27;;;4.80;99.90;;;;;;5051591;28;20177;-75
2023/01/25 11:26:18;;;;;;;36.35;21.55;;;4.80;99.90;;;;;;5017675;28;20211;-74
2023/01/25 11:28:48;;;;;;;29.13;19.02;;;4.80;99.90;;;;;;5018199;28;20184;-74
2023/01/25 11:31:23;;;;;;;34.60;19.25;;;4.80;99.90;;;;;;5033291;28;20184;-74
2023/01/25 11:33:52;;;;;;;34.88;22.38;;;4.80;99.90;;;;;;5017223;28;20180;-74
2023/01/25 11:36:39;;;;;;;36.40;21.70;;;4.80;99.90;;;;;;5032792;28;20200;-74
2023/01/25 11:39:46;;;;;;;31.60;19.95;;;4.80;99.90;;;;;;5033050;28;20871;-74
2023/01/25 11:42:45;;;;;;;31.90;18.50;;;4.80;99.90;;;;;;5032008;28;20188;-75
2023/01/25 11:45:37;;;;;;;32.80;20.05;;;4.80;99.90;;;;;;5048817;28;20203;-74
2023/01/25 11:48:27;;;;;;;32.67;20.35;;;4.80;99.90;;;;;;5051149;28;20164;-75
2023/01/25 11:51:05;;;;;;;33.15;21.15;;;4.80;99.90;;;;;;5056667;28;20198;-75
2023/01/25 11:54:06;;;;;;;35.90;20.75;;;4.80;99.90;;;;;;5054499;28;20191;-75
2023/01/25 11:56:59;;;;;;;33.85;20.10;;;4.80;99.90;;;;;;5053681;28;20193;-75
2023/01/25 12:00:04;;;;;;;32.75;21.00;;;4.80;99.90;;;;;;5037352;28;20189;-74
2023/01/25 12:03:00;;;;;;;31.30;19.25;;;4.80;99.90;;;;;;5043031;28;20205;-75
2023/01/25 12:05:25;;;;;;;33.75;19.88;;;4.80;99.90;;;;;;5030556;28;20216;-75
2023/01/25 12:08:14;;;;;;;35.03;19.43;;;4.70;99.90;;;;;;5043998;28;20457;-75
2023/01/25 12:11:22;;;;;;;34.45;20.67;;;4.80;99.90;;;;;;4986166;28;20973;-73
2023/01/25 12:14:18;;;;;;;32.35;20.13;;;4.70;99.90;;;;;;4989366;28;20229;-70
2023/01/25 12:16:58;;;;;;;35.80;20.52;;;4.80;99.90;;;;;;4945925;28;20207;-71
2023/01/25 12:19:37;;;;;;;35.38;20.73;;;4.80;99.90;;;;;;4969123;28;20167;-71
2023/01/25 12:22:12;;;;;;;32.83;19.17;;;4.80;99.90;;;;;;4968980;28;20337;-71
2023/01/25 12:25:09;;;;;;;34.15;19.65;;;4.80;99.90;;;;;;4984317;28;20202;-71
2023/01/25 12:28:05;;;;;;;31.50;19.50;;;4.80;99.90;;;;;;4953081;28;20703;-71
2023/01/25 12:30:45;;;;;;;37.80;21.90;;;4.80;99.90;;;;;;4969013;28;20195;-71
2023/01/25 12:33:43;;;;;;;33.70;20.83;;;4.70;99.90;;;;;;4971203;28;20231;-71
2023/01/25 12:36:17;;;;;;;31.55;18.45;;;4.70;99.90;;;;;;4969269;28;20207;-71
2023/01/25 12:38:51;;;;;;;33.83;20.20;;;4.80;99.90;;;;;;4940976;28;20202;-71
2023/01/25 12:41:53;;;;;;;34.72;19.48;;;4.80;99.90;;;;;;4972818;28;20168;-71
2023/01/25 12:44:30;;;;;;;36.28;20.85;;;4.80;99.90;;;;;;4979430;28;20205;-71
2023/01/25 12:47:19;;;;;;;37.63;21.05;;;4.70;99.90;;;;;;4991836;28;20604;-71
2023/01/25 12:50:15;;;;;;;31.85;20.30;;;4.70;99.90;;;;;;4971995;28;20656;-71
2023/01/25 12:53:12;;;;;;;35.88;21.50;;;4.80;99.90;;;;;;4956276;28;20211;-71
2023/01/25 12:55:39;;;;;;;35.67;21.83;;;4.70;99.90;;;;;;4955972;28;20687;-71
2023/01/25 12:58:23;;;;;;;36.67;21.02;;;4.70;99.90;;;;;;4988500;28;20163;-71
2023/01/25 13:01:10;;;;;;;35.65;19.83;;;4.80;99.90;;;;;;4971778;28;20649;-71
2023/01/25 13:03:55;;;;;;;32.90;19.98;;;4.80;99.90;;;;;;4952720;29;20290;-71